sensor_id;sensor_type;location;lat;lon;timestamp;P1;durP1;ratioP1;P2;durP2;ratioP2
44664;SDS011;30382;48.802;9.388;2022-11-15T00:00:33;4.07;;;3.67;;
44664;SDS011;30382;48.802;9.388;2022-11-15T00:03:36;5.63;;;3.40;;
44664;SDS011;30382;48.802;9.388;2022-11-15T00:06:40;3.70;;;3.13;;
44664;SDS011;30382;48.802;9.388;2022-11-15T00:09:43;3.93;;;2.90;;
44664;SDS011;30382;48.802;9.388;2022-11-15T00:12:46;6.37;;;3.40;;
44664;SDS011;30382;48.802;9.388;2022-11-15T00:15:50;3.47;;;3.17;;
44664;SDS011;30382;48.802;9.388;2022-11-15T00:18:53;4.10;;;3.70;;
44664;SDS011;30382;48.802;9.388;2022-11-15T00:21:56;6.80;;;4.67;;
44664;SDS011;30382;48.802;9.388;2022-11-15T00:24:59;5.23;;;4.70;;
44664;SDS011;30382;48.802;9.388;2022-11-15T00:28:03;4.90;;;4.40;;
44664;SDS011;30382;48.802;9.388;2022-11-15T00:31:07;6.40;;;4.10;;
44664;SDS011;30382;48.802;9.388;2022-11-15T00:34:11;3.73;;;3.40;;
44664;SDS011;30382;48.802;9.388;2022-11-15T00:37:14;5.20;;;4.37;;
44664;SDS011;30382;48.802;9.388;2022-11-15T00:40:18;3.80;;;3.40;;
44664;SDS011;30382;48.802;9.388;2022-11-15T00:43:21;4.20;;;3.63;;
44664;SDS011;30382;48.802;9.388;2022-11-15T00:46:24;6.23;;;3.27;;
44664;SDS011;30382;48.802;9.388;2022-11-15T00:49:27;4.10;;;3.30;;
44664;SDS011;30382;48.802;9.388;2022-11-15T00:52:31;4.47;;;3.20;;
44664;SDS011;30382;48.802;9.388;2022-11-15T00:55:34;3.00;;;2.70;;
44664;SDS011;30382;48.802;9.388;2022-11-15T00:58:37;4.07;;;3.07;;
44664;SDS011;30382;48.802;9.388;2022-11-15T01:01:40;3.85;;;3.20;;
44664;SDS011;30382;48.802;9.388;2022-11-15T01:04:44;3.20;;;2.87;;
44664;SDS011;30382;48.802;9.388;2022-11-15T01:07:47;2.70;;;2.50;;
44664;SDS011;30382;48.802;9.388;2022-11-15T01:10:53;3.43;;;2.60;;
44664;SDS011;30382;48.802;9.388;2022-11-15T01:13:57;3.00;;;2.63;;
44664;SDS011;30382;48.802;9.388;2022-11-15T01:17:00;3.30;;;2.67;;
44664;SDS011;30382;48.802;9.388;2022-11-15T01:20:05;4.20;;;2.70;;
44664;SDS011;30382;48.802;9.388;2022-11-15T01:23:08;4.80;;;2.90;;
44664;SDS011;30382;48.802;9.388;2022-11-15T01:26:12;3.43;;;2.23;;
44664;SDS011;30382;48.802;9.388;2022-11-15T01:29:15;5.33;;;2.80;;
44664;SDS011;30382;48.802;9.388;2022-11-15T01:32:19;5.30;;;3.23;;
44664;SDS011;30382;48.802;9.388;2022-11-15T01:38:25;3.10;;;2.80;;
44664;SDS011;30382;48.802;9.388;2022-11-15T01:41:29;4.40;;;2.50;;
44664;SDS011;30382;48.802;9.388;2022-11-15T01:47:37;3.30;;;2.70;;
44664;SDS011;30382;48.802;9.388;2022-11-15T01:50:42;4.40;;;2.47;;
44664;SDS011;30382;48.802;9.388;2022-11-15T01:53:46;3.50;;;2.80;;
44664;SDS011;30382;48.802;9.388;2022-11-15T01:56:51;4.93;;;2.87;;
44664;SDS011;30382;48.802;9.388;2022-11-15T01:59:56;4.10;;;2.90;;
44664;SDS011;30382;48.802;9.388;2022-11-15T02:15:13;2.70;;;2.50;;
44664;SDS011;30382;48.802;9.388;2022-11-15T02:18:19;2.65;;;2.40;;
44664;SDS011;30382;48.802;9.388;2022-11-15T02:40:52;3.75;;;2.45;;
44664;SDS011;30382;48.802;9.388;2022-11-15T02:53:25;5.13;;;2.47;;
44664;SDS011;30382;48.802;9.388;2022-11-15T02:56:28;2.50;;;2.30;;
44664;SDS011;30382;48.802;9.388;2022-11-15T02:59:42;4.30;;;2.40;;
44664;SDS011;30382;48.802;9.388;2022-11-15T03:06:22;2.33;;;1.90;;
44664;SDS011;30382;48.802;9.388;2022-11-15T03:09:43;2.53;;;2.33;;
44664;SDS011;30382;48.802;9.388;2022-11-15T03:12:55;2.17;;;1.87;;
44664;SDS011;30382;48.802;9.388;2022-11-15T03:19:04;3.13;;;2.13;;
44664;SDS011;30382;48.802;9.388;2022-11-15T03:22:09;2.40;;;2.20;;
44664;SDS011;30382;48.802;9.388;2022-11-15T03:25:14;4.20;;;2.20;;
44664;SDS011;30382;48.802;9.388;2022-11-15T03:28:20;3.17;;;2.37;;
44664;SDS011;30382;48.802;9.388;2022-11-15T03:31:27;2.60;;;2.40;;
44664;SDS011;30382;48.802;9.388;2022-11-15T03:34:50;3.20;;;2.03;;
44664;SDS011;30382;48.802;9.388;2022-11-15T03:40:58;4.23;;;2.80;;
44664;SDS011;30382;48.802;9.388;2022-11-15T03:44:16;6.00;;;2.10;;
44664;SDS011;30382;48.802;9.388;2022-11-15T03:47:28;4.20;;;1.80;;
44664;SDS011;30382;48.802;9.388;2022-11-15T03:50:32;3.23;;;2.70;;
44664;SDS011;30382;48.802;9.388;2022-11-15T03:53:36;3.60;;;1.93;;
44664;SDS011;30382;48.802;9.388;2022-11-15T03:56:39;2.70;;;2.37;;
44664;SDS011;30382;48.802;9.388;2022-11-15T03:59:43;9.83;;;3.07;;
44664;SDS011;30382;48.802;9.388;2022-11-15T04:02:46;5.37;;;2.63;;
44664;SDS011;30382;48.802;9.388;2022-11-15T04:05:49;7.00;;;2.60;;
44664;SDS011;30382;48.802;9.388;2022-11-15T04:08:52;4.77;;;3.10;;
44664;SDS011;30382;48.802;9.388;2022-11-15T04:11:55;3.10;;;2.77;;
44664;SDS011;30382;48.802;9.388;2022-11-15T04:14:59;4.40;;;3.00;;
44664;SDS011;30382;48.802;9.388;2022-11-15T04:18:12;2.90;;;2.20;;
44664;SDS011;30382;48.802;9.388;2022-11-15T04:21:15;2.47;;;2.20;;
44664;SDS011;30382;48.802;9.388;2022-11-15T04:24:37;3.70;;;2.60;;
44664;SDS011;30382;48.802;9.388;2022-11-15T04:27:41;4.30;;;2.43;;
44664;SDS011;30382;48.802;9.388;2022-11-15T04:30:44;4.50;;;2.50;;
44664;SDS011;30382;48.802;9.388;2022-11-15T04:33:47;4.40;;;2.53;;
44664;SDS011;30382;48.802;9.388;2022-11-15T04:36:50;6.03;;;2.67;;
44664;SDS011;30382;48.802;9.388;2022-11-15T04:40:13;5.50;;;2.77;;
44664;SDS011;30382;48.802;9.388;2022-11-15T04:43:16;4.00;;;3.10;;
44664;SDS011;30382;48.802;9.388;2022-11-15T04:46:20;5.33;;;3.43;;
44664;SDS011;30382;48.802;9.388;2022-11-15T04:49:23;8.80;;;3.27;;
44664;SDS011;30382;48.802;9.388;2022-11-15T04:52:29;4.00;;;2.57;;
44664;SDS011;30382;48.802;9.388;2022-11-15T04:55:33;3.40;;;2.60;;
44664;SDS011;30382;48.802;9.388;2022-11-15T04:58:36;3.87;;;2.73;;
44664;SDS011;30382;48.802;9.388;2022-11-15T05:01:39;5.40;;;3.90;;
44664;SDS011;30382;48.802;9.388;2022-11-15T05:04:42;4.10;;;2.67;;
44664;SDS011;30382;48.802;9.388;2022-11-15T05:07:46;6.57;;;2.50;;
44664;SDS011;30382;48.802;9.388;2022-11-15T05:10:49;5.27;;;3.47;;
44664;SDS011;30382;48.802;9.388;2022-11-15T05:13:52;8.50;;;4.27;;
44664;SDS011;30382;48.802;9.388;2022-11-15T05:16:56;7.70;;;3.40;;
44664;SDS011;30382;48.802;9.388;2022-11-15T05:19:59;4.40;;;3.07;;
44664;SDS011;30382;48.802;9.388;2022-11-15T05:23:02;3.07;;;2.80;;
44664;SDS011;30382;48.802;9.388;2022-11-15T05:26:06;5.37;;;3.67;;
44664;SDS011;30382;48.802;9.388;2022-11-15T05:29:09;3.40;;;3.10;;
44664;SDS011;30382;48.802;9.388;2022-11-15T05:32:14;3.30;;;3.00;;
44664;SDS011;30382;48.802;9.388;2022-11-15T05:35:30;11.33;;;3.67;;
44664;SDS011;30382;48.802;9.388;2022-11-15T05:38:36;5.60;;;3.77;;
44664;SDS011;30382;48.802;9.388;2022-11-15T05:41:40;4.10;;;2.73;;
44664;SDS011;30382;48.802;9.388;2022-11-15T05:44:46;4.40;;;2.93;;
44664;SDS011;30382;48.802;9.388;2022-11-15T05:47:50;4.67;;;2.60;;
44664;SDS011;30382;48.802;9.388;2022-11-15T05:50:54;4.20;;;2.83;;
44664;SDS011;30382;48.802;9.388;2022-11-15T05:53:58;5.27;;;3.23;;
44664;SDS011;30382;48.802;9.388;2022-11-15T05:57:01;6.07;;;2.73;;
44664;SDS011;30382;48.802;9.388;2022-11-15T06:00:04;3.90;;;2.63;;
44664;SDS011;30382;48.802;9.388;2022-11-15T06:03:08;6.00;;;2.90;;
44664;SDS011;30382;48.802;9.388;2022-11-15T06:06:11;6.63;;;3.33;;
44664;SDS011;30382;48.802;9.388;2022-11-15T06:09:14;9.80;;;3.43;;
44664;SDS011;30382;48.802;9.388;2022-11-15T06:12:18;3.67;;;3.37;;
44664;SDS011;30382;48.802;9.388;2022-11-15T06:15:21;4.47;;;4.07;;
44664;SDS011;30382;48.802;9.388;2022-11-15T06:18:24;7.30;;;5.27;;
44664;SDS011;30382;48.802;9.388;2022-11-15T06:21:28;11.20;;;4.70;;
44664;SDS011;30382;48.802;9.388;2022-11-15T06:24:32;8.10;;;3.83;;
44664;SDS011;30382;48.802;9.388;2022-11-15T06:27:35;9.77;;;3.47;;
44664;SDS011;30382;48.802;9.388;2022-11-15T06:30:38;8.70;;;4.70;;
44664;SDS011;30382;48.802;9.388;2022-11-15T06:33:42;6.40;;;3.60;;
44664;SDS011;30382;48.802;9.388;2022-11-15T06:36:45;8.70;;;4.13;;
44664;SDS011;30382;48.802;9.388;2022-11-15T06:39:48;4.37;;;3.07;;
44664;SDS011;30382;48.802;9.388;2022-11-15T06:42:56;10.03;;;4.00;;
44664;SDS011;30382;48.802;9.388;2022-11-15T06:46:00;4.60;;;3.77;;
44664;SDS011;30382;48.802;9.388;2022-11-15T06:49:04;4.10;;;3.70;;
44664;SDS011;30382;48.802;9.388;2022-11-15T06:52:07;8.77;;;4.20;;
44664;SDS011;30382;48.802;9.388;2022-11-15T06:55:10;9.57;;;6.47;;
44664;SDS011;30382;48.802;9.388;2022-11-15T06:58:13;9.63;;;4.00;;
44664;SDS011;30382;48.802;9.388;2022-11-15T07:01:17;8.00;;;4.50;;
44664;SDS011;30382;48.802;9.388;2022-11-15T07:04:20;7.50;;;3.63;;
44664;SDS011;30382;48.802;9.388;2022-11-15T07:07:23;5.53;;;3.83;;
44664;SDS011;30382;48.802;9.388;2022-11-15T07:10:27;4.03;;;3.73;;
44664;SDS011;30382;48.802;9.388;2022-11-15T07:13:31;5.20;;;3.20;;
44664;SDS011;30382;48.802;9.388;2022-11-15T07:19:38;5.47;;;3.27;;
44664;SDS011;30382;48.802;9.388;2022-11-15T07:22:42;4.13;;;3.47;;
44664;SDS011;30382;48.802;9.388;2022-11-15T07:31:51;2.80;;;2.60;;
44664;SDS011;30382;48.802;9.388;2022-11-15T07:34:54;5.20;;;2.57;;
44664;SDS011;30382;48.802;9.388;2022-11-15T07:37:59;4.40;;;2.77;;
44664;SDS011;30382;48.802;9.388;2022-11-15T07:44:05;6.87;;;3.77;;
44664;SDS011;30382;48.802;9.388;2022-11-15T07:47:08;12.43;;;3.77;;
44664;SDS011;30382;48.802;9.388;2022-11-15T07:50:12;4.53;;;3.67;;
44664;SDS011;30382;48.802;9.388;2022-11-15T07:53:15;4.83;;;3.60;;
44664;SDS011;30382;48.802;9.388;2022-11-15T07:56:18;5.17;;;3.80;;
44664;SDS011;30382;48.802;9.388;2022-11-15T07:59:23;3.30;;;3.10;;
44664;SDS011;30382;48.802;9.388;2022-11-15T08:02:27;9.77;;;5.23;;
44664;SDS011;30382;48.802;9.388;2022-11-15T08:05:30;6.97;;;5.27;;
44664;SDS011;30382;48.802;9.388;2022-11-15T08:08:33;16.97;;;11.40;;
44664;SDS011;30382;48.802;9.388;2022-11-15T08:11:36;12.60;;;9.20;;
44664;SDS011;30382;48.802;9.388;2022-11-15T08:14:40;10.60;;;5.50;;
44664;SDS011;30382;48.802;9.388;2022-11-15T08:17:43;5.33;;;4.50;;
44664;SDS011;30382;48.802;9.388;2022-11-15T08:20:46;4.30;;;3.90;;
44664;SDS011;30382;48.802;9.388;2022-11-15T08:23:50;5.77;;;3.83;;
44664;SDS011;30382;48.802;9.388;2022-11-15T08:26:53;3.30;;;3.00;;
44664;SDS011;30382;48.802;9.388;2022-11-15T08:29:56;3.00;;;2.77;;
44664;SDS011;30382;48.802;9.388;2022-11-15T08:33:00;4.40;;;3.20;;
44664;SDS011;30382;48.802;9.388;2022-11-15T08:36:03;3.33;;;2.50;;
44664;SDS011;30382;48.802;9.388;2022-11-15T08:39:09;4.97;;;4.27;;
44664;SDS011;30382;48.802;9.388;2022-11-15T08:42:12;6.07;;;4.97;;
44664;SDS011;30382;48.802;9.388;2022-11-15T08:45:16;7.43;;;5.73;;
44664;SDS011;30382;48.802;9.388;2022-11-15T08:48:19;16.80;;;11.00;;
44664;SDS011;30382;48.802;9.388;2022-11-15T08:51:22;8.13;;;5.63;;
44664;SDS011;30382;48.802;9.388;2022-11-15T08:54:25;15.63;;;5.77;;
44664;SDS011;30382;48.802;9.388;2022-11-15T08:57:29;8.73;;;5.23;;
44664;SDS011;30382;48.802;9.388;2022-11-15T09:00:36;6.20;;;5.60;;
44664;SDS011;30382;48.802;9.388;2022-11-15T09:03:40;12.73;;;7.33;;
44664;SDS011;30382;48.802;9.388;2022-11-15T09:06:43;5.63;;;4.00;;
44664;SDS011;30382;48.802;9.388;2022-11-15T09:09:46;8.13;;;5.33;;
44664;SDS011;30382;48.802;9.388;2022-11-15T09:12:49;7.20;;;4.43;;
44664;SDS011;30382;48.802;9.388;2022-11-15T09:15:56;10.00;;;4.83;;
44664;SDS011;30382;48.802;9.388;2022-11-15T09:19:00;16.20;;;6.23;;
44664;SDS011;30382;48.802;9.388;2022-11-15T09:22:07;46.73;;;7.80;;
44664;SDS011;30382;48.802;9.388;2022-11-15T09:25:10;47.57;;;8.70;;
44664;SDS011;30382;48.802;9.388;2022-11-15T09:28:13;49.07;;;11.23;;
44664;SDS011;30382;48.802;9.388;2022-11-15T09:31:16;57.93;;;12.80;;
44664;SDS011;30382;48.802;9.388;2022-11-15T09:34:19;14.50;;;7.27;;
44664;SDS011;30382;48.802;9.388;2022-11-15T09:37:24;14.70;;;6.97;;
44664;SDS011;30382;48.802;9.388;2022-11-15T09:40:27;17.17;;;6.47;;
44664;SDS011;30382;48.802;9.388;2022-11-15T09:43:37;16.47;;;6.50;;
44664;SDS011;30382;48.802;9.388;2022-11-15T09:50:14;11.20;;;6.60;;
44664;SDS011;30382;48.802;9.388;2022-11-15T09:52:58;10.13;;;5.70;;
44664;SDS011;30382;48.802;9.388;2022-11-15T09:55:52;12.23;;;5.57;;
44664;SDS011;30382;48.802;9.388;2022-11-15T09:58:45;4.30;;;3.90;;
44664;SDS011;30382;48.802;9.388;2022-11-15T10:04:15;7.50;;;4.17;;
44664;SDS011;30382;48.802;9.388;2022-11-15T10:07:04;16.90;;;5.27;;
44664;SDS011;30382;48.802;9.388;2022-11-15T10:09:54;7.83;;;4.37;;
44664;SDS011;30382;48.802;9.388;2022-11-15T10:12:42;4.90;;;2.90;;
44664;SDS011;30382;48.802;9.388;2022-11-15T10:15:28;7.80;;;4.93;;
44664;SDS011;30382;48.802;9.388;2022-11-15T10:20:58;11.37;;;4.20;;
44664;SDS011;30382;48.802;9.388;2022-11-15T10:23:43;11.60;;;4.13;;
44664;SDS011;30382;48.802;9.388;2022-11-15T10:26:28;5.10;;;3.93;;
44664;SDS011;30382;48.802;9.388;2022-11-15T10:29:17;11.53;;;4.30;;
44664;SDS011;30382;48.802;9.388;2022-11-15T10:32:01;8.07;;;3.97;;
44664;SDS011;30382;48.802;9.388;2022-11-15T10:34:46;15.63;;;4.73;;
44664;SDS011;30382;48.802;9.388;2022-11-15T10:37:31;20.90;;;5.10;;
44664;SDS011;30382;48.802;9.388;2022-11-15T10:40:22;27.00;;;5.73;;
44664;SDS011;30382;48.802;9.388;2022-11-15T10:45:55;5.20;;;3.03;;
44664;SDS011;30382;48.802;9.388;2022-11-15T10:48:39;10.33;;;3.63;;
44664;SDS011;30382;48.802;9.388;2022-11-15T10:51:26;5.30;;;3.10;;
44664;SDS011;30382;48.802;9.388;2022-11-15T10:54:12;8.50;;;4.50;;
44664;SDS011;30382;48.802;9.388;2022-11-15T10:56:58;6.63;;;4.10;;
44664;SDS011;30382;48.802;9.388;2022-11-15T10:59:45;3.30;;;2.97;;
44664;SDS011;30382;48.802;9.388;2022-11-15T11:05:28;14.67;;;4.30;;
44664;SDS011;30382;48.802;9.388;2022-11-15T11:10:59;8.20;;;5.93;;
44664;SDS011;30382;48.802;9.388;2022-11-15T11:13:43;7.90;;;7.20;;
44664;SDS011;30382;48.802;9.388;2022-11-15T11:16:33;8.60;;;7.70;;
44664;SDS011;30382;48.802;9.388;2022-11-15T11:19:31;11.10;;;8.63;;
44664;SDS011;30382;48.802;9.388;2022-11-15T11:22:20;15.27;;;8.67;;
44664;SDS011;30382;48.802;9.388;2022-11-15T11:40:32;10.00;;;9.10;;
44664;SDS011;30382;48.802;9.388;2022-11-15T11:46:13;12.73;;;6.00;;
44664;SDS011;30382;48.802;9.388;2022-11-15T11:51:56;5.33;;;4.63;;
44664;SDS011;30382;48.802;9.388;2022-11-15T11:55:29;8.30;;;5.97;;
44664;SDS011;30382;48.802;9.388;2022-11-15T12:00:33;6.53;;;5.83;;
44664;SDS011;30382;48.802;9.388;2022-11-15T12:03:38;7.80;;;4.70;;
44664;SDS011;30382;48.802;9.388;2022-11-15T12:09:29;6.17;;;5.57;;
44664;SDS011;30382;48.802;9.388;2022-11-15T12:12:17;5.83;;;4.60;;
44664;SDS011;30382;48.802;9.388;2022-11-15T12:17:54;13.33;;;5.37;;
44664;SDS011;30382;48.802;9.388;2022-11-15T12:20:40;15.43;;;6.50;;
44664;SDS011;30382;48.802;9.388;2022-11-15T12:23:30;36.50;;;26.07;;
44664;SDS011;30382;48.802;9.388;2022-11-15T12:26:17;15.17;;;9.60;;
44664;SDS011;30382;48.802;9.388;2022-11-15T12:29:05;7.30;;;4.10;;
44664;SDS011;30382;48.802;9.388;2022-11-15T12:31:54;5.47;;;3.40;;
44664;SDS011;30382;48.802;9.388;2022-11-15T12:34:41;6.93;;;3.83;;
44664;SDS011;30382;48.802;9.388;2022-11-15T12:40:28;6.57;;;5.30;;
44664;SDS011;30382;48.802;9.388;2022-11-15T12:46:01;13.30;;;4.77;;
44664;SDS011;30382;48.802;9.388;2022-11-15T13:00:01;10.13;;;5.10;;
44664;SDS011;30382;48.802;9.388;2022-11-15T13:33:37;5.97;;;2.80;;
44664;SDS011;30382;48.802;9.388;2022-11-15T13:36:22;5.30;;;3.20;;
44664;SDS011;30382;48.802;9.388;2022-11-15T13:39:40;3.87;;;2.50;;
44664;SDS011;30382;48.802;9.388;2022-11-15T13:42:18;3.83;;;2.73;;
44664;SDS011;30382;48.802;9.388;2022-11-15T13:45:03;5.73;;;3.60;;
44664;SDS011;30382;48.802;9.388;2022-11-15T13:47:55;4.03;;;2.87;;
44664;SDS011;30382;48.802;9.388;2022-11-15T13:50:40;4.80;;;3.47;;
44664;SDS011;30382;48.802;9.388;2022-11-15T13:53:24;4.57;;;2.40;;
44664;SDS011;30382;48.802;9.388;2022-11-15T13:56:09;4.73;;;3.23;;
44664;SDS011;30382;48.802;9.388;2022-11-15T13:58:54;3.10;;;2.80;;
44664;SDS011;30382;48.802;9.388;2022-11-15T14:01:39;10.43;;;3.67;;
44664;SDS011;30382;48.802;9.388;2022-11-15T14:04:26;3.90;;;2.90;;
44664;SDS011;30382;48.802;9.388;2022-11-15T14:07:17;5.20;;;2.97;;
44664;SDS011;30382;48.802;9.388;2022-11-15T14:10:16;6.13;;;3.30;;
44664;SDS011;30382;48.802;9.388;2022-11-15T14:13:02;8.13;;;3.23;;
44664;SDS011;30382;48.802;9.388;2022-11-15T14:15:46;7.83;;;7.13;;
44664;SDS011;30382;48.802;9.388;2022-11-15T14:21:27;6.50;;;4.80;;
44664;SDS011;30382;48.802;9.388;2022-11-15T14:24:19;8.37;;;6.00;;
44664;SDS011;30382;48.802;9.388;2022-11-15T14:27:20;12.83;;;6.27;;
44664;SDS011;30382;48.802;9.388;2022-11-15T14:30:05;15.20;;;6.10;;
44664;SDS011;30382;48.802;9.388;2022-11-15T14:32:50;11.33;;;5.60;;
44664;SDS011;30382;48.802;9.388;2022-11-15T14:35:37;5.63;;;5.10;;
44664;SDS011;30382;48.802;9.388;2022-11-15T14:38:21;7.63;;;5.13;;
44664;SDS011;30382;48.802;9.388;2022-11-15T14:41:10;7.63;;;5.80;;
44664;SDS011;30382;48.802;9.388;2022-11-15T14:43:55;11.10;;;7.53;;
44664;SDS011;30382;48.802;9.388;2022-11-15T14:46:39;10.53;;;7.63;;
44664;SDS011;30382;48.802;9.388;2022-11-15T14:49:24;8.80;;;5.80;;
44664;SDS011;30382;48.802;9.388;2022-11-15T14:57:59;8.40;;;4.50;;
44664;SDS011;30382;48.802;9.388;2022-11-15T15:00:43;6.10;;;4.00;;
44664;SDS011;30382;48.802;9.388;2022-11-15T15:03:27;5.37;;;4.87;;
44664;SDS011;30382;48.802;9.388;2022-11-15T15:06:12;7.33;;;5.37;;
44664;SDS011;30382;48.802;9.388;2022-11-15T15:08:57;11.07;;;4.83;;
44664;SDS011;30382;48.802;9.388;2022-11-15T15:11:41;5.33;;;4.37;;
44664;SDS011;30382;48.802;9.388;2022-11-15T15:14:26;8.43;;;4.53;;
44664;SDS011;30382;48.802;9.388;2022-11-15T15:17:10;5.80;;;4.30;;
44664;SDS011;30382;48.802;9.388;2022-11-15T15:19:55;4.93;;;4.43;;
44664;SDS011;30382;48.802;9.388;2022-11-15T15:22:39;6.30;;;4.90;;
44664;SDS011;30382;48.802;9.388;2022-11-15T15:25:28;7.47;;;4.93;;
44664;SDS011;30382;48.802;9.388;2022-11-15T15:28:12;6.60;;;5.63;;
44664;SDS011;30382;48.802;9.388;2022-11-15T15:30:57;6.03;;;5.30;;
44664;SDS011;30382;48.802;9.388;2022-11-15T15:33:41;8.47;;;5.70;;
44664;SDS011;30382;48.802;9.388;2022-11-15T15:36:25;9.93;;;6.00;;
44664;SDS011;30382;48.802;9.388;2022-11-15T15:39:10;8.37;;;6.80;;
44664;SDS011;30382;48.802;9.388;2022-11-15T15:41:55;5.90;;;5.30;;
44664;SDS011;30382;48.802;9.388;2022-11-15T15:44:39;10.10;;;5.50;;
44664;SDS011;30382;48.802;9.388;2022-11-15T15:47:24;6.53;;;5.87;;
44664;SDS011;30382;48.802;9.388;2022-11-15T15:53:06;6.20;;;5.60;;
44664;SDS011;30382;48.802;9.388;2022-11-15T15:55:52;6.00;;;5.17;;
44664;SDS011;30382;48.802;9.388;2022-11-15T15:58:36;7.00;;;6.30;;
44664;SDS011;30382;48.802;9.388;2022-11-15T16:01:21;9.33;;;6.37;;
44664;SDS011;30382;48.802;9.388;2022-11-15T16:04:05;9.50;;;6.13;;
44664;SDS011;30382;48.802;9.388;2022-11-15T16:06:50;7.73;;;6.00;;
44664;SDS011;30382;48.802;9.388;2022-11-15T16:09:36;9.77;;;6.00;;
44664;SDS011;30382;48.802;9.388;2022-11-15T16:12:39;8.37;;;5.80;;
44664;SDS011;30382;48.802;9.388;2022-11-15T16:15:24;6.40;;;5.63;;
44664;SDS011;30382;48.802;9.388;2022-11-15T16:18:14;9.53;;;7.40;;
44664;SDS011;30382;48.802;9.388;2022-11-15T16:20:58;16.93;;;10.70;;
44664;SDS011;30382;48.802;9.388;2022-11-15T16:23:44;13.20;;;11.53;;
44664;SDS011;30382;48.802;9.388;2022-11-15T16:26:28;17.80;;;12.80;;
44664;SDS011;30382;48.802;9.388;2022-11-15T16:29:13;14.17;;;9.80;;
44664;SDS011;30382;48.802;9.388;2022-11-15T16:31:57;12.10;;;10.37;;
44664;SDS011;30382;48.802;9.388;2022-11-15T16:34:42;13.83;;;11.27;;
44664;SDS011;30382;48.802;9.388;2022-11-15T16:37:26;13.80;;;11.80;;
44664;SDS011;30382;48.802;9.388;2022-11-15T16:43:01;8.30;;;6.77;;
44664;SDS011;30382;48.802;9.388;2022-11-15T16:45:47;12.30;;;8.77;;
44664;SDS011;30382;48.802;9.388;2022-11-15T16:48:32;10.37;;;6.57;;
44664;SDS011;30382;48.802;9.388;2022-11-15T16:51:17;10.90;;;7.30;;
44664;SDS011;30382;48.802;9.388;2022-11-15T16:54:01;7.73;;;6.93;;
44664;SDS011;30382;48.802;9.388;2022-11-15T16:56:46;7.80;;;6.90;;
44664;SDS011;30382;48.802;9.388;2022-11-15T16:59:31;8.83;;;7.90;;
44664;SDS011;30382;48.802;9.388;2022-11-15T17:02:16;9.20;;;8.30;;
44664;SDS011;30382;48.802;9.388;2022-11-15T17:05:01;13.20;;;8.63;;
44664;SDS011;30382;48.802;9.388;2022-11-15T17:07:46;13.43;;;10.60;;
44664;SDS011;30382;48.802;9.388;2022-11-15T17:10:31;12.10;;;10.30;;
44664;SDS011;30382;48.802;9.388;2022-11-15T17:13:16;11.50;;;8.80;;
44664;SDS011;30382;48.802;9.388;2022-11-15T17:16:06;7.77;;;6.77;;
44664;SDS011;30382;48.802;9.388;2022-11-15T17:18:50;10.80;;;8.00;;
44664;SDS011;30382;48.802;9.388;2022-11-15T17:21:35;8.50;;;7.23;;
44664;SDS011;30382;48.802;9.388;2022-11-15T17:24:19;6.13;;;5.53;;
44664;SDS011;30382;48.802;9.388;2022-11-15T17:27:04;7.13;;;6.17;;
44664;SDS011;30382;48.802;9.388;2022-11-15T17:29:48;10.93;;;5.93;;
44664;SDS011;30382;48.802;9.388;2022-11-15T17:32:36;7.00;;;5.93;;
44664;SDS011;30382;48.802;9.388;2022-11-15T17:35:20;11.23;;;6.87;;
44664;SDS011;30382;48.802;9.388;2022-11-15T17:38:05;13.60;;;8.87;;
44664;SDS011;30382;48.802;9.388;2022-11-15T17:40:58;11.90;;;7.83;;
44664;SDS011;30382;48.802;9.388;2022-11-15T17:43:43;9.73;;;8.52;;
44664;SDS011;30382;48.802;9.388;2022-11-15T17:46:28;9.40;;;7.90;;
44664;SDS011;30382;48.802;9.388;2022-11-15T17:49:12;17.20;;;8.33;;
44664;SDS011;30382;48.802;9.388;2022-11-15T17:51:56;10.00;;;6.87;;
44664;SDS011;30382;48.802;9.388;2022-11-15T17:54:41;8.37;;;6.83;;
44664;SDS011;30382;48.802;9.388;2022-11-15T17:57:25;17.87;;;7.90;;
44664;SDS011;30382;48.802;9.388;2022-11-15T18:00:10;10.60;;;7.70;;
44664;SDS011;30382;48.802;9.388;2022-11-15T18:02:55;10.90;;;7.83;;
44664;SDS011;30382;48.802;9.388;2022-11-15T18:05:40;8.47;;;7.23;;
44664;SDS011;30382;48.802;9.388;2022-11-15T18:08:26;12.93;;;9.93;;
44664;SDS011;30382;48.802;9.388;2022-11-15T18:11:12;12.30;;;9.50;;
44664;SDS011;30382;48.802;9.388;2022-11-15T18:14:02;12.37;;;8.97;;
44664;SDS011;30382;48.802;9.388;2022-11-15T18:16:46;9.30;;;6.97;;
44664;SDS011;30382;48.802;9.388;2022-11-15T18:19:30;11.67;;;7.80;;
44664;SDS011;30382;48.802;9.388;2022-11-15T18:22:15;13.00;;;8.20;;
44664;SDS011;30382;48.802;9.388;2022-11-15T18:24:59;10.93;;;8.13;;
44664;SDS011;30382;48.802;9.388;2022-11-15T18:27:43;11.00;;;7.63;;
44664;SDS011;30382;48.802;9.388;2022-11-15T18:30:28;10.97;;;6.90;;
44664;SDS011;30382;48.802;9.388;2022-11-15T18:33:12;14.30;;;8.17;;
44664;SDS011;30382;48.802;9.388;2022-11-15T18:36:00;11.83;;;7.17;;
44664;SDS011;30382;48.802;9.388;2022-11-15T18:38:45;14.70;;;8.70;;
44664;SDS011;30382;48.802;9.388;2022-11-15T18:41:31;11.50;;;9.10;;
44664;SDS011;30382;48.802;9.388;2022-11-15T18:44:16;12.97;;;8.03;;
44664;SDS011;30382;48.802;9.388;2022-11-15T18:47:00;10.40;;;7.90;;
44664;SDS011;30382;48.802;9.388;2022-11-15T18:49:44;16.73;;;9.20;;
44664;SDS011;30382;48.802;9.388;2022-11-15T18:52:29;12.87;;;9.93;;
44664;SDS011;30382;48.802;9.388;2022-11-15T18:55:13;17.53;;;10.90;;
44664;SDS011;30382;48.802;9.388;2022-11-15T18:57:58;19.43;;;16.10;;
44664;SDS011;30382;48.802;9.388;2022-11-15T19:00:42;16.80;;;11.03;;
44664;SDS011;30382;48.802;9.388;2022-11-15T19:03:29;18.07;;;10.07;;
44664;SDS011;30382;48.802;9.388;2022-11-15T19:06:14;14.50;;;10.07;;
44664;SDS011;30382;48.802;9.388;2022-11-15T19:08:59;14.57;;;10.60;;
44664;SDS011;30382;48.802;9.388;2022-11-15T19:11:44;11.57;;;9.57;;
44664;SDS011;30382;48.802;9.388;2022-11-15T19:14:29;14.20;;;10.67;;
44664;SDS011;30382;48.802;9.388;2022-11-15T19:17:13;12.33;;;10.37;;
44664;SDS011;30382;48.802;9.388;2022-11-15T19:19:57;20.30;;;17.10;;
44664;SDS011;30382;48.802;9.388;2022-11-15T19:22:42;13.80;;;11.43;;
44664;SDS011;30382;48.802;9.388;2022-11-15T19:25:26;11.33;;;9.40;;
44664;SDS011;30382;48.802;9.388;2022-11-15T19:28:12;12.67;;;10.13;;
44664;SDS011;30382;48.802;9.388;2022-11-15T19:31:03;12.37;;;9.60;;
44664;SDS011;30382;48.802;9.388;2022-11-15T19:33:48;15.13;;;11.20;;
44664;SDS011;30382;48.802;9.388;2022-11-15T19:36:37;12.33;;;11.07;;
44664;SDS011;30382;48.802;9.388;2022-11-15T19:39:22;14.20;;;10.80;;
44664;SDS011;30382;48.802;9.388;2022-11-15T19:42:07;14.90;;;11.87;;
44664;SDS011;30382;48.802;9.388;2022-11-15T19:44:51;15.43;;;11.00;;
44664;SDS011;30382;48.802;9.388;2022-11-15T19:47:35;14.00;;;9.80;;
44664;SDS011;30382;48.802;9.388;2022-11-15T19:50:20;10.13;;;9.13;;
44664;SDS011;30382;48.802;9.388;2022-11-15T19:53:04;17.03;;;12.53;;
44664;SDS011;30382;48.802;9.388;2022-11-15T19:55:59;12.17;;;10.40;;
44664;SDS011;30382;48.802;9.388;2022-11-15T19:58:44;10.90;;;9.80;;
44664;SDS011;30382;48.802;9.388;2022-11-15T20:01:31;15.33;;;11.50;;
44664;SDS011;30382;48.802;9.388;2022-11-15T20:04:16;14.57;;;11.13;;
44664;SDS011;30382;48.802;9.388;2022-11-15T20:07:00;17.60;;;12.40;;
44664;SDS011;30382;48.802;9.388;2022-11-15T20:09:45;13.53;;;10.90;;
44664;SDS011;30382;48.802;9.388;2022-11-15T20:12:29;23.70;;;16.63;;
44664;SDS011;30382;48.802;9.388;2022-11-15T20:15:13;21.13;;;13.70;;
44664;SDS011;30382;48.802;9.388;2022-11-15T20:17:58;19.50;;;14.50;;
44664;SDS011;30382;48.802;9.388;2022-11-15T20:20:42;14.97;;;11.40;;
44664;SDS011;30382;48.802;9.388;2022-11-15T20:23:26;14.40;;;11.87;;